Meteo Giornale » Osservazioni meteo Italia » Falconara

ore: 06:20 - Osservazioni Meteo Falconara
Lat. 43° 37' N Lon. 13° 22' E Alt. 12 metri s.l.m.

nuvoloso Europe/Rome

19 °C

Nuvoloso

Temp. 24 Ore

19 °C

36 °C

Nord

5.5 Km/h

Dew point 15 °C

Umidità 77 %

Visibilità  10 Km

Il sole sorge alle ore 05:50

Il sole tramonta alle ore 20:35

Data e Ora Cielo e Fenomeni T °C DP °C Um. % Pres. hPa Vis. km Vento km/h
Oggi h: 06:20 nuvoloso Nuvoloso 19 15 77 1013 10 N 5.5
Oggi h: 05:50 molto_nuvoloso Molto Nuvoloso 20 14 68 1013 10 N 3.7
Oggi h: 05:20 molto_nuvoloso Molto Nuvoloso 21 15 68 1013 10 N 3.7
Oggi h: 04:50 nuvoloso Nuvoloso 20 15 72 1013 10 N 5.5
Oggi h: 04:20 molto_nuvoloso Molto Nuvoloso 21 15 68 1013 10 N 3.7
Oggi h: 03:50 nuvoloso Nuvoloso 22 15 64 1014 10 N 1.8
Oggi h: 03:20 molto_nuvoloso Molto Nuvoloso 22 15 64 1014 10 N 3.7
Oggi h: 02:50 molto_nuvoloso Molto Nuvoloso 22 15 64 1014 10 N 5.5
Oggi h: 02:20 molto_nuvoloso Molto Nuvoloso 22 15 64 1014 10 N 3.7
Oggi h: 01:50 poco_nuvoloso Poco Nuvoloso 23 15 60 1014 10 N 5.5
Oggi h: 01:20 poco_nuvoloso Poco Nuvoloso 23 16 64 1014 10 N 5.5
Oggi h: 00:50 sereno Sereno 23 16 64 1014 10 N 1.8
Oggi h: 00:20 sereno Sereno 25 16 57 1014 10 S/SE 7.4
Ieri h: 23:50 sereno Sereno 24 16 60 1014 10 N 3.7
Ieri h: 23:20 sereno Sereno 26 15 50 1014 10 N 3.7
Ieri h: 22:50 poco_nuvoloso Poco Nuvoloso 27 15 47 1014 10 N 5.5
Ieri h: 22:20 nuvoloso Nuvoloso 26 16 54 1014 10 SO 11.1
Ieri h: 21:50 poco_nuvoloso Poco Nuvoloso 29 14 39 1014 10 N 1.8
Ieri h: 21:20 sereno Sereno 29 14 39 1014 10 N 5.5
Ieri h: 20:50 sereno Sereno 31 15 37 1013 10 SE 9.3
Ieri h: 20:20 poco_nuvoloso Poco Nuvoloso 32 13 31 1014 10 S/SE 7.4
Ieri h: 19:50 sereno Sereno 33 14 31 1013 10 S/SE 11.1
Ieri h: 19:20 poco_nuvoloso Poco Nuvoloso 34 13 28 1013 10 S/SE 11.1
Ieri h: 18:50 nuvoloso Nuvoloso 34 13 28 1013 10 S/SE 14.8
Ieri h: 18:20 sereno Sereno 34 14 30 1013 10 SE 14.8
Ieri h: 17:50 sereno Sereno 34 14 30 1013 10 SE 14.8
Ieri h: 17:20 sereno Sereno 35 13 26 1013 10 SE 11.1
Ieri h: 16:50 sereno Sereno 35 11 23 1014 10 SE 16.7
Ieri h: 16:20 sereno Sereno 36 11 22 1014 10 SE 13
Ieri h: 15:50 sereno Sereno 35 12 24 1014 10 SE 14.8
Ieri h: 15:20 molto_nuvoloso Molto Nuvoloso 34 11 24 1015 10 S/SE 14.8
Ieri h: 14:50 molto_nuvoloso Molto Nuvoloso 33 11 26 1016 10 S/SE 13
Ieri h: 14:20 molto_nuvoloso Molto Nuvoloso 32 13 31 1016 10 S/SE 11.1
Ieri h: 13:50 molto_nuvoloso Molto Nuvoloso 31 15 37 1016 10 SE 9.3
Ieri h: 13:20 molto_nuvoloso Molto Nuvoloso 31 15 37 1016 10 S/SE 13
Ieri h: 12:50 molto_nuvoloso Molto Nuvoloso 31 16 40 1016 10 SE 11.1
Ieri h: 12:20 molto_nuvoloso Molto Nuvoloso 31 16 40 1017 10 S/SE 11.1
Ieri h: 11:50 molto_nuvoloso Molto Nuvoloso 30 17 45 1017 10 S 9.3
Ieri h: 11:20 molto_nuvoloso Molto Nuvoloso 28 21 65 1016 10 SE 9.3
Ieri h: 10:50 molto_nuvoloso Molto Nuvoloso 28 22 69 1016 10 E/SE 7.4
Ieri h: 10:20 coperto_pioggia Pioggia Debole 28 17 51 1017 10 N 3.7
Ieri h: 09:50 coperto_pioggia Pioggia Debole 29 15 42 1016 10 N 3.7
Ieri h: 09:20 molto_nuvoloso Molto Nuvoloso 29 14 39 1016 10 E/NE 9.3
Ieri h: 08:50 molto_nuvoloso Molto Nuvoloso 28 14 42 1016 10 N 5.5
Ieri h: 08:20 molto_nuvoloso Molto Nuvoloso 28 14 42 1015 10 N 5.5
Ieri h: 07:50 molto_nuvoloso Molto Nuvoloso 26 14 47 1016 10 SE 7.4
Ieri h: 07:20 molto_nuvoloso Molto Nuvoloso 26 16 54 1015 10 NE 7.4
Ieri h: 06:50 coperto_pioggia Pioggia Debole 26 14 47 1015 10 N 5.5